Thetys II — FGTO — position and weather

sailwx.info

Track history (hours):
 
Tides and Currents Weather Stations Pressure Air Temp Water Temp Dewpoint Dewpoint Depression Visibility Wind Speed Wind Dir Waves Ship Positions

Oceanographic research ship Thetys II (France)

Last reported at 2017-Jul-23 04:44 UTC. Time now 2017-Jul-23 16:34 UTC.
Position N 39°00' E 024°40'.

Length 25 m; beam 8 m.

Type: Ship. MMSI: 227212000.

Date/timePositionNaut miles runAvg speedWind from/ knotsBaromVisibWave heightAir tempDewpointWater temp
2017-Jul-23 04:44N 39°00' E 024°40'39 1.6
2017-Jul-22 04:12N 39°39' E 024°37'4 8.4
2017-Jul-22 03:43N 39°43' E 024°36'4 8.4
2017-Jul-22 03:16N 39°47' E 024°35'2 8.3
2017-Jul-22 03:00N 39°49' E 024°35'7 3.7
2017-Jul-22 01:01N 39°56' E 024°32'1 4.2
2017-Jul-22 00:49N 39°57' E 024°32'1 4.1
2017-Jul-22 00:31N 39°58' E 024°31'3 4.1
2017-Jul-21 23:52N 40°01' E 024°31'2 4.0
2017-Jul-21 23:29N 40°02' E 024°30'6 4.0
2017-Jul-21 22:02N 40°08' E 024°28'0 4.1
2017-Jul-21 21:58N 40°08' E 024°28'2 4.1
2017-Jul-21 21:30N 40°10' E 024°28'2 3.8
2017-Jul-21 21:01N 40°12' E 024°27'2 4.1
2017-Jul-21 20:30N 40°10' E 024°29'2 4.1
2017-Jul-21 20:01N 40°09' E 024°31'2 3.9
2017-Jul-21 19:30N 40°07' E 024°32'7 4.0
2017-Jul-21 17:40N 40°02' E 024°39'2 4.1
2017-Jul-21 17:13N 40°00' E 024°40'1 4.2
2017-Jul-21 17:00N 39°60' E 024°41'1 1.7
2017-Jul-21 16:30N 40°01' E 024°41'2 4.0
2017-Jul-21 16:00N 40°03' E 024°41'2 4.1
2017-Jul-21 15:31N 40°05' E 024°41'2 4.0
2017-Jul-21 15:01N 40°07' E 024°41'2 4.0
2017-Jul-21 14:31N 40°09' E 024°41'2 4.0
2017-Jul-21 14:01N 40°11' E 024°40'2 4.0
2017-Jul-21 13:30N 40°13' E 024°40'2 4.1
2017-Jul-21 13:00N 40°15' E 024°40'2 2.9
2017-Jul-21 12:29N 40°16' E 024°40'2 4.0
2017-Jul-21 12:01N 40°14' E 024°39'2 4.1
2017-Jul-21 11:31N 40°13' E 024°38'2 4.0
2017-Jul-21 11:01N 40°11' E 024°37'6 4.1
2017-Jul-21 09:35N 40°06' E 024°33'1 4.3
2017-Jul-21 09:22N 40°05' E 024°32'2 4.2
2017-Jul-21 08:58N 40°04' E 024°31'6 4.1
2017-Jul-21 07:33N 39°59' E 024°27'0 3.5
2017-Jul-21 07:30N 39°58' E 024°27'2 3.7
2017-Jul-21 06:51N 39°56' E 024°26'1 3.9
2017-Jul-21 06:30N 39°55' E 024°25'5 4.0
2017-Jul-21 05:10N 39°50' E 024°22'1 4.2
2017-Jul-21 04:59N 39°50' E 024°21'2 4.1
2017-Jul-21 04:30N 39°48' E 024°20'2 3.9
2017-Jul-21 04:00N 39°46' E 024°19'2 4.0
2017-Jul-21 03:29N 39°45' E 024°17'2 4.2
2017-Jul-21 03:00N 39°43' E 024°16'8 0.2
2017-Jul-19 17:31N 39°50' E 024°12'0 4.3
2017-Jul-19 17:30N 39°50' E 024°12'3 4.3
2017-Jul-19 16:54N 39°52' E 024°10'6 2.1
2017-Jul-19 14:13N 39°57' E 024°05'4 4.0
2017-Jul-19 13:07N 39°54' E 024°10'2 4.1
2017-Jul-19 12:39N 39°53' E 024°12'1 3.9
2017-Jul-19 12:29N 39°53' E 024°13'2 4.1
2017-Jul-19 11:59N 39°52' E 024°15'2 4.1
2017-Jul-19 11:24N 39°50' E 024°18'13 1.3
2017-Jul-19 01:07N 40°04' E 024°18'1 4.0
2017-Jul-19 00:55N 40°03' E 024°17'2 3.9
2017-Jul-19 00:28N 40°02' E 024°16'2 4.1
2017-Jul-18 23:59N 39°60' E 024°15'2 4.1
2017-Jul-18 23:30N 39°58' E 024°13'2 3.9
2017-Jul-18 23:00N 39°57' E 024°12'2 3.9
2017-Jul-18 22:25N 39°54' E 024°11'2 4.0
2017-Jul-18 22:00N 39°53' E 024°10'3 4.1
2017-Jul-18 21:22N 39°51' E 024°09'2 4.1
2017-Jul-18 20:58N 39°49' E 024°08'5 3.9
2017-Jul-18 19:35N 39°44' E 024°04'0 4.3
2017-Jul-18 19:29N 39°44' E 024°04'5 4.0
2017-Jul-18 18:19N 39°40' E 024°01'  
2017-Jul-13 21:57N 39°19' E 023°51'  
Track history (hours):
 
Tides and Currents Weather Stations Pressure Air Temp Water Temp Dewpoint Dewpoint Depression Visibility Wind Speed Wind Dir Waves Ship Positions

Oceanographic research ship Thetys II (France)

Last reported at 2017-Jul-23 04:44 UTC. Time now 2017-Jul-23 16:34 UTC.
Position N 39°00' E 024°40'.

Length 25 m; beam 8 m.

Type: Ship. MMSI: 227212000.

Date/timePositionNaut miles runAvg speedWind from/ knotsBaromVisibWave heightAir tempDewpointWater temp
2017-Jul-23 04:44N 39°00' E 024°40'39 1.6
2017-Jul-22 04:12N 39°39' E 024°37'4 8.4
2017-Jul-22 03:43N 39°43' E 024°36'4 8.4
2017-Jul-22 03:16N 39°47' E 024°35'2 8.3
2017-Jul-22 03:00N 39°49' E 024°35'7 3.7
2017-Jul-22 01:01N 39°56' E 024°32'1 4.2
2017-Jul-22 00:49N 39°57' E 024°32'1 4.1
2017-Jul-22 00:31N 39°58' E 024°31'3 4.1
2017-Jul-21 23:52N 40°01' E 024°31'2 4.0
2017-Jul-21 23:29N 40°02' E 024°30'6 4.0
2017-Jul-21 22:02N 40°08' E 024°28'0 4.1
2017-Jul-21 21:58N 40°08' E 024°28'2 4.1
2017-Jul-21 21:30N 40°10' E 024°28'2 3.8
2017-Jul-21 21:01N 40°12' E 024°27'2 4.1
2017-Jul-21 20:30N 40°10' E 024°29'2 4.1
2017-Jul-21 20:01N 40°09' E 024°31'2 3.9
2017-Jul-21 19:30N 40°07' E 024°32'7 4.0
2017-Jul-21 17:40N 40°02' E 024°39'2 4.1
2017-Jul-21 17:13N 40°00' E 024°40'1 4.2
2017-Jul-21 17:00N 39°60' E 024°41'1 1.7
2017-Jul-21 16:30N 40°01' E 024°41'2 4.0
2017-Jul-21 16:00N 40°03' E 024°41'2 4.1
2017-Jul-21 15:31N 40°05' E 024°41'2 4.0
2017-Jul-21 15:01N 40°07' E 024°41'2 4.0
2017-Jul-21 14:31N 40°09' E 024°41'2 4.0
2017-Jul-21 14:01N 40°11' E 024°40'2 4.0
2017-Jul-21 13:30N 40°13' E 024°40'2 4.1
2017-Jul-21 13:00N 40°15' E 024°40'2 2.9
2017-Jul-21 12:29N 40°16' E 024°40'2 4.0
2017-Jul-21 12:01N 40°14' E 024°39'2 4.1
2017-Jul-21 11:31N 40°13' E 024°38'2 4.0
2017-Jul-21 11:01N 40°11' E 024°37'6 4.1
2017-Jul-21 09:35N 40°06' E 024°33'1 4.3
2017-Jul-21 09:22N 40°05' E 024°32'2 4.2
2017-Jul-21 08:58N 40°04' E 024°31'6 4.1
2017-Jul-21 07:33N 39°59' E 024°27'0 3.5
2017-Jul-21 07:30N 39°58' E 024°27'2 3.7
2017-Jul-21 06:51N 39°56' E 024°26'1 3.9
2017-Jul-21 06:30N 39°55' E 024°25'5 4.0
2017-Jul-21 05:10N 39°50' E 024°22'1 4.2
2017-Jul-21 04:59N 39°50' E 024°21'2 4.1
2017-Jul-21 04:30N 39°48' E 024°20'2 3.9
2017-Jul-21 04:00N 39°46' E 024°19'2 4.0
2017-Jul-21 03:29N 39°45' E 024°17'2 4.2
2017-Jul-21 03:00N 39°43' E 024°16'8 0.2
2017-Jul-19 17:31N 39°50' E 024°12'0 4.3
2017-Jul-19 17:30N 39°50' E 024°12'3 4.3
2017-Jul-19 16:54N 39°52' E 024°10'6 2.1
2017-Jul-19 14:13N 39°57' E 024°05'4 4.0
2017-Jul-19 13:07N 39°54' E 024°10'2 4.1
2017-Jul-19 12:39N 39°53' E 024°12'1 3.9
2017-Jul-19 12:29N 39°53' E 024°13'2 4.1
2017-Jul-19 11:59N 39°52' E 024°15'2 4.1
2017-Jul-19 11:24N 39°50' E 024°18'13 1.3
2017-Jul-19 01:07N 40°04' E 024°18'1 4.0
2017-Jul-19 00:55N 40°03' E 024°17'2 3.9
2017-Jul-19 00:28N 40°02' E 024°16'2 4.1
2017-Jul-18 23:59N 39°60' E 024°15'2 4.1
2017-Jul-18 23:30N 39°58' E 024°13'2 3.9
2017-Jul-18 23:00N 39°57' E 024°12'2 3.9
2017-Jul-18 22:25N 39°54' E 024°11'2 4.0
2017-Jul-18 22:00N 39°53' E 024°10'3 4.1
2017-Jul-18 21:22N 39°51' E 024°09'2 4.1
2017-Jul-18 20:58N 39°49' E 024°08'5 3.9
2017-Jul-18 19:35N 39°44' E 024°04'0 4.3
2017-Jul-18 19:29N 39°44' E 024°04'5 4.0
2017-Jul-18 18:19N 39°40' E 024°01'  
2017-Jul-13 21:57N 39°19' E 023°51'  

Dump ship's entire track history